sensor_id;sensor_type;location;lat;lon;timestamp;temperature;humidity
37412;DHT22;23278;52.110;6.050;2023-02-04T00:01:37;7.70;99.90
37412;DHT22;23278;52.110;6.050;2023-02-04T00:04:03;7.70;99.90
37412;DHT22;23278;52.110;6.050;2023-02-04T00:06:29;7.60;99.90
37412;DHT22;23278;52.110;6.050;2023-02-04T00:08:54;7.50;99.90
37412;DHT22;23278;52.110;6.050;2023-02-04T00:11:20;7.40;99.90
37412;DHT22;23278;52.110;6.050;2023-02-04T00:13:46;7.40;99.90
37412;DHT22;23278;52.110;6.050;2023-02-04T00:16:12;7.40;99.90
37412;DHT22;23278;52.110;6.050;2023-02-04T00:18:38;7.40;99.90
37412;DHT22;23278;52.110;6.050;2023-02-04T00:21:04;7.40;99.90
37412;DHT22;23278;52.110;6.050;2023-02-04T00:23:30;7.40;99.90
37412;DHT22;23278;52.110;6.050;2023-02-04T00:25:56;7.50;99.90
37412;DHT22;23278;52.110;6.050;2023-02-04T00:28:22;7.50;99.90
37412;DHT22;23278;52.110;6.050;2023-02-04T00:30:48;7.60;99.90
37412;DHT22;23278;52.110;6.050;2023-02-04T00:33:13;7.60;99.90
37412;DHT22;23278;52.110;6.050;2023-02-04T00:35:42;7.60;99.90
37412;DHT22;23278;52.110;6.050;2023-02-04T00:38:08;7.70;99.90
37412;DHT22;23278;52.110;6.050;2023-02-04T00:40:33;7.70;99.90
37412;DHT22;23278;52.110;6.050;2023-02-04T00:42:59;7.80;99.90
37412;DHT22;23278;52.110;6.050;2023-02-04T00:45:25;7.80;99.90
37412;DHT22;23278;52.110;6.050;2023-02-04T00:47:51;7.80;99.90
37412;DHT22;23278;52.110;6.050;2023-02-04T00:50:17;7.90;99.90
37412;DHT22;23278;52.110;6.050;2023-02-04T00:52:43;7.90;99.90
37412;DHT22;23278;52.110;6.050;2023-02-04T00:55:09;7.90;99.90
37412;DHT22;23278;52.110;6.050;2023-02-04T00:57:37;8.00;99.90
37412;DHT22;23278;52.110;6.050;2023-02-04T01:00:04;8.00;99.90
37412;DHT22;23278;52.110;6.050;2023-02-04T01:02:30;8.00;99.90
37412;DHT22;23278;52.110;6.050;2023-02-04T01:04:57;8.00;99.90
37412;DHT22;23278;52.110;6.050;2023-02-04T01:07:23;8.00;99.90
37412;DHT22;23278;52.110;6.050;2023-02-04T01:09:48;8.00;99.90
37412;DHT22;23278;52.110;6.050;2023-02-04T01:12:14;8.10;99.90
37412;DHT22;23278;52.110;6.050;2023-02-04T01:14:40;8.00;99.90
37412;DHT22;23278;52.110;6.050;2023-02-04T01:17:06;8.10;99.90
37412;DHT22;23278;52.110;6.050;2023-02-04T01:19:32;8.10;99.90
37412;DHT22;23278;52.110;6.050;2023-02-04T01:21:58;8.10;99.90
37412;DHT22;23278;52.110;6.050;2023-02-04T01:24:24;8.10;99.90
37412;DHT22;23278;52.110;6.050;2023-02-04T01:27:08;8.10;99.90
37412;DHT22;23278;52.110;6.050;2023-02-04T01:29:35;8.10;99.90
37412;DHT22;23278;52.110;6.050;2023-02-04T01:32:01;8.00;99.90
37412;DHT22;23278;52.110;6.050;2023-02-04T01:34:28;7.90;99.90
37412;DHT22;23278;52.110;6.050;2023-02-04T01:36:56;7.80;99.90
37412;DHT22;23278;52.110;6.050;2023-02-04T01:39:22;7.70;99.90
37412;DHT22;23278;52.110;6.050;2023-02-04T01:41:48;7.60;99.90
37412;DHT22;23278;52.110;6.050;2023-02-04T01:44:13;7.50;99.90
37412;DHT22;23278;52.110;6.050;2023-02-04T01:46:40;7.40;99.90
37412;DHT22;23278;52.110;6.050;2023-02-04T01:49:09;7.40;99.90
37412;DHT22;23278;52.110;6.050;2023-02-04T01:51:36;7.30;99.90
37412;DHT22;23278;52.110;6.050;2023-02-04T01:54:02;7.30;99.90
37412;DHT22;23278;52.110;6.050;2023-02-04T01:56:30;7.20;99.90
37412;DHT22;23278;52.110;6.050;2023-02-04T01:58:57;7.20;99.90
37412;DHT22;23278;52.110;6.050;2023-02-04T02:01:37;7.10;99.90
37412;DHT22;23278;52.110;6.050;2023-02-04T02:04:08;7.00;99.90
37412;DHT22;23278;52.110;6.050;2023-02-04T02:06:35;7.00;99.90
37412;DHT22;23278;52.110;6.050;2023-02-04T02:09:02;6.90;99.90
37412;DHT22;23278;52.110;6.050;2023-02-04T02:11:29;6.90;99.90
37412;DHT22;23278;52.110;6.050;2023-02-04T02:13:55;6.90;99.90
37412;DHT22;23278;52.110;6.050;2023-02-04T02:16:21;6.90;99.90
37412;DHT22;23278;52.110;6.050;2023-02-04T02:18:47;6.80;99.90
37412;DHT22;23278;52.110;6.050;2023-02-04T02:21:15;6.80;99.90
37412;DHT22;23278;52.110;6.050;2023-02-04T02:23:48;6.70;99.90
37412;DHT22;23278;52.110;6.050;2023-02-04T02:26:15;6.70;99.90
37412;DHT22;23278;52.110;6.050;2023-02-04T02:28:43;6.60;99.90
37412;DHT22;23278;52.110;6.050;2023-02-04T02:31:09;6.60;99.90
37412;DHT22;23278;52.110;6.050;2023-02-04T02:33:35;6.50;99.90
37412;DHT22;23278;52.110;6.050;2023-02-04T02:36:01;6.50;99.90
37412;DHT22;23278;52.110;6.050;2023-02-04T02:38:27;6.40;99.90
37412;DHT22;23278;52.110;6.050;2023-02-04T02:40:53;6.40;99.90
37412;DHT22;23278;52.110;6.050;2023-02-04T02:43:22;6.30;99.90
37412;DHT22;23278;52.110;6.050;2023-02-04T02:45:50;6.20;99.90
37412;DHT22;23278;52.110;6.050;2023-02-04T02:48:16;6.20;99.90
37412;DHT22;23278;52.110;6.050;2023-02-04T02:50:43;6.10;99.90
37412;DHT22;23278;52.110;6.050;2023-02-04T02:53:13;6.10;99.90
37412;DHT22;23278;52.110;6.050;2023-02-04T02:55:41;6.00;99.90
37412;DHT22;23278;52.110;6.050;2023-02-04T02:58:16;6.00;99.90
37412;DHT22;23278;52.110;6.050;2023-02-04T03:00:43;6.00;99.90
37412;DHT22;23278;52.110;6.050;2023-02-04T03:03:16;6.00;99.90
37412;DHT22;23278;52.110;6.050;2023-02-04T03:05:48;6.00;99.90
37412;DHT22;23278;52.110;6.050;2023-02-04T03:08:15;6.00;99.90
37412;DHT22;23278;52.110;6.050;2023-02-04T03:10:42;6.00;99.90
37412;DHT22;23278;52.110;6.050;2023-02-04T03:13:09;6.10;99.90
37412;DHT22;23278;52.110;6.050;2023-02-04T03:15:36;6.20;99.90
37412;DHT22;23278;52.110;6.050;2023-02-04T03:18:02;6.30;99.90
37412;DHT22;23278;52.110;6.050;2023-02-04T03:20:30;6.40;99.90
37412;DHT22;23278;52.110;6.050;2023-02-04T03:22:57;6.30;99.90
37412;DHT22;23278;52.110;6.050;2023-02-04T03:25:24;6.40;99.90
37412;DHT22;23278;52.110;6.050;2023-02-04T03:27:51;6.40;99.90
37412;DHT22;23278;52.110;6.050;2023-02-04T03:30:21;6.50;99.90
37412;DHT22;23278;52.110;6.050;2023-02-04T03:32:48;6.50;99.90
37412;DHT22;23278;52.110;6.050;2023-02-04T03:35:14;6.60;99.90
37412;DHT22;23278;52.110;6.050;2023-02-04T03:37:40;6.70;99.90
37412;DHT22;23278;52.110;6.050;2023-02-04T03:40:06;6.70;99.90
37412;DHT22;23278;52.110;6.050;2023-02-04T03:42:32;6.70;99.90
37412;DHT22;23278;52.110;6.050;2023-02-04T03:44:59;6.80;99.90
37412;DHT22;23278;52.110;6.050;2023-02-04T03:47:25;6.70;99.90
37412;DHT22;23278;52.110;6.050;2023-02-04T03:49:51;6.80;99.90
37412;DHT22;23278;52.110;6.050;2023-02-04T03:52:17;6.80;99.90
37412;DHT22;23278;52.110;6.050;2023-02-04T03:54:43;6.80;99.90
37412;DHT22;23278;52.110;6.050;2023-02-04T03:57:08;6.80;99.90
37412;DHT22;23278;52.110;6.050;2023-02-04T03:59:35;6.80;99.90
37412;DHT22;23278;52.110;6.050;2023-02-04T04:02:01;6.80;99.90
37412;DHT22;23278;52.110;6.050;2023-02-04T04:04:27;6.80;99.90
37412;DHT22;23278;52.110;6.050;2023-02-04T04:06:53;6.80;99.90
37412;DHT22;23278;52.110;6.050;2023-02-04T04:09:19;6.80;99.90
37412;DHT22;23278;52.110;6.050;2023-02-04T04:11:44;6.80;99.90
37412;DHT22;23278;52.110;6.050;2023-02-04T04:14:10;6.80;99.90
37412;DHT22;23278;52.110;6.050;2023-02-04T04:16:36;6.80;99.90
37412;DHT22;23278;52.110;6.050;2023-02-04T04:19:02;6.80;99.90
37412;DHT22;23278;52.110;6.050;2023-02-04T04:21:28;6.70;99.90
37412;DHT22;23278;52.110;6.050;2023-02-04T04:23:55;6.70;99.90
37412;DHT22;23278;52.110;6.050;2023-02-04T04:26:21;6.70;99.90
37412;DHT22;23278;52.110;6.050;2023-02-04T04:28:46;6.60;99.90
37412;DHT22;23278;52.110;6.050;2023-02-04T04:31:12;6.60;99.90
37412;DHT22;23278;52.110;6.050;2023-02-04T04:33:38;6.60;99.90
37412;DHT22;23278;52.110;6.050;2023-02-04T04:36:05;6.60;99.90
37412;DHT22;23278;52.110;6.050;2023-02-04T04:38:31;6.70;99.90
37412;DHT22;23278;52.110;6.050;2023-02-04T04:40:57;6.70;99.90
37412;DHT22;23278;52.110;6.050;2023-02-04T04:43:23;6.60;99.90
37412;DHT22;23278;52.110;6.050;2023-02-04T04:45:49;6.60;99.90
37412;DHT22;23278;52.110;6.050;2023-02-04T04:48:15;6.50;99.90
37412;DHT22;23278;52.110;6.050;2023-02-04T04:50:41;6.50;99.90
37412;DHT22;23278;52.110;6.050;2023-02-04T04:53:07;6.50;99.90
37412;DHT22;23278;52.110;6.050;2023-02-04T04:55:37;6.50;99.90
37412;DHT22;23278;52.110;6.050;2023-02-04T04:58:04;6.40;99.90
37412;DHT22;23278;52.110;6.050;2023-02-04T05:00:30;6.40;99.90
37412;DHT22;23278;52.110;6.050;2023-02-04T05:02:56;6.30;99.90
37412;DHT22;23278;52.110;6.050;2023-02-04T05:05:22;6.20;99.90
37412;DHT22;23278;52.110;6.050;2023-02-04T05:07:48;6.20;99.90
37412;DHT22;23278;52.110;6.050;2023-02-04T05:10:14;6.30;99.90
37412;DHT22;23278;52.110;6.050;2023-02-04T05:12:40;6.30;99.90
37412;DHT22;23278;52.110;6.050;2023-02-04T05:15:06;6.30;99.90
37412;DHT22;23278;52.110;6.050;2023-02-04T05:17:32;6.30;99.90
37412;DHT22;23278;52.110;6.050;2023-02-04T05:19:58;6.40;99.90
37412;DHT22;23278;52.110;6.050;2023-02-04T05:22:24;6.40;99.90
37412;DHT22;23278;52.110;6.050;2023-02-04T05:24:50;6.40;99.90
37412;DHT22;23278;52.110;6.050;2023-02-04T05:27:16;6.40;99.90
37412;DHT22;23278;52.110;6.050;2023-02-04T05:29:42;6.50;99.90
37412;DHT22;23278;52.110;6.050;2023-02-04T05:32:08;6.40;99.90
37412;DHT22;23278;52.110;6.050;2023-02-04T05:34:34;6.40;99.90
37412;DHT22;23278;52.110;6.050;2023-02-04T05:37:00;6.40;99.90
37412;DHT22;23278;52.110;6.050;2023-02-04T05:39:26;6.40;99.90
37412;DHT22;23278;52.110;6.050;2023-02-04T05:41:52;6.30;99.90
37412;DHT22;23278;52.110;6.050;2023-02-04T05:44:18;6.30;99.90
37412;DHT22;23278;52.110;6.050;2023-02-04T05:46:44;6.20;99.90
37412;DHT22;23278;52.110;6.050;2023-02-04T05:49:10;6.20;99.90
37412;DHT22;23278;52.110;6.050;2023-02-04T05:51:36;6.30;99.90
37412;DHT22;23278;52.110;6.050;2023-02-04T05:54:02;6.30;99.90
37412;DHT22;23278;52.110;6.050;2023-02-04T05:56:28;6.30;99.90
37412;DHT22;23278;52.110;6.050;2023-02-04T05:58:54;6.30;99.90
37412;DHT22;23278;52.110;6.050;2023-02-04T06:01:20;6.20;99.90
37412;DHT22;23278;52.110;6.050;2023-02-04T06:03:46;6.20;99.90
37412;DHT22;23278;52.110;6.050;2023-02-04T06:06:12;6.20;99.90
37412;DHT22;23278;52.110;6.050;2023-02-04T06:08:38;6.20;99.90
37412;DHT22;23278;52.110;6.050;2023-02-04T06:11:04;6.20;99.90
37412;DHT22;23278;52.110;6.050;2023-02-04T06:13:30;6.20;99.90
37412;DHT22;23278;52.110;6.050;2023-02-04T06:15:56;6.10;99.90
37412;DHT22;23278;52.110;6.050;2023-02-04T06:18:21;6.10;99.90
37412;DHT22;23278;52.110;6.050;2023-02-04T06:20:47;6.00;99.90
37412;DHT22;23278;52.110;6.050;2023-02-04T06:23:13;6.00;99.90
37412;DHT22;23278;52.110;6.050;2023-02-04T06:25:39;5.90;99.90
37412;DHT22;23278;52.110;6.050;2023-02-04T06:28:05;5.80;99.90
37412;DHT22;23278;52.110;6.050;2023-02-04T06:30:31;5.70;99.90
37412;DHT22;23278;52.110;6.050;2023-02-04T06:32:58;5.70;99.90
37412;DHT22;23278;52.110;6.050;2023-02-04T06:35:24;5.60;99.90
37412;DHT22;23278;52.110;6.050;2023-02-04T06:37:49;5.60;99.90
37412;DHT22;23278;52.110;6.050;2023-02-04T06:40:15;5.60;99.90
37412;DHT22;23278;52.110;6.050;2023-02-04T06:42:41;5.60;99.90
37412;DHT22;23278;52.110;6.050;2023-02-04T06:45:10;5.70;99.90
37412;DHT22;23278;52.110;6.050;2023-02-04T06:47:36;5.70;99.90
37412;DHT22;23278;52.110;6.050;2023-02-04T06:50:02;5.80;99.90
37412;DHT22;23278;52.110;6.050;2023-02-04T06:52:28;5.80;99.90
37412;DHT22;23278;52.110;6.050;2023-02-04T06:54:54;5.80;99.90
37412;DHT22;23278;52.110;6.050;2023-02-04T06:57:20;5.80;99.90
37412;DHT22;23278;52.110;6.050;2023-02-04T06:59:46;5.70;99.90
37412;DHT22;23278;52.110;6.050;2023-02-04T07:02:12;5.80;99.90
37412;DHT22;23278;52.110;6.050;2023-02-04T07:04:38;5.80;99.90
37412;DHT22;23278;52.110;6.050;2023-02-04T07:07:04;5.90;99.90
37412;DHT22;23278;52.110;6.050;2023-02-04T07:09:30;5.90;99.90
37412;DHT22;23278;52.110;6.050;2023-02-04T07:11:55;6.00;99.90
37412;DHT22;23278;52.110;6.050;2023-02-04T07:14:21;6.10;99.90
37412;DHT22;23278;52.110;6.050;2023-02-04T07:16:47;6.10;99.90
37412;DHT22;23278;52.110;6.050;2023-02-04T07:19:13;6.20;99.90
37412;DHT22;23278;52.110;6.050;2023-02-04T07:21:39;6.30;99.90
37412;DHT22;23278;52.110;6.050;2023-02-04T07:24:05;6.30;99.90
37412;DHT22;23278;52.110;6.050;2023-02-04T07:26:31;6.40;99.90
37412;DHT22;23278;52.110;6.050;2023-02-04T07:28:57;6.50;99.90
37412;DHT22;23278;52.110;6.050;2023-02-04T07:31:22;6.50;99.90
37412;DHT22;23278;52.110;6.050;2023-02-04T07:33:48;6.50;99.90
37412;DHT22;23278;52.110;6.050;2023-02-04T07:36:14;6.60;99.90
37412;DHT22;23278;52.110;6.050;2023-02-04T07:38:40;6.70;99.90
37412;DHT22;23278;52.110;6.050;2023-02-04T07:41:06;6.70;99.90
37412;DHT22;23278;52.110;6.050;2023-02-04T07:43:32;6.80;99.90
37412;DHT22;23278;52.110;6.050;2023-02-04T07:45:58;6.80;99.90
37412;DHT22;23278;52.110;6.050;2023-02-04T07:48:23;6.80;99.90
37412;DHT22;23278;52.110;6.050;2023-02-04T07:50:49;6.90;99.90
37412;DHT22;23278;52.110;6.050;2023-02-04T07:53:16;6.90;99.90
37412;DHT22;23278;52.110;6.050;2023-02-04T07:55:41;7.00;99.90
37412;DHT22;23278;52.110;6.050;2023-02-04T07:58:08;7.00;99.90
37412;DHT22;23278;52.110;6.050;2023-02-04T08:00:34;7.00;99.90
37412;DHT22;23278;52.110;6.050;2023-02-04T08:02:59;7.00;99.90
37412;DHT22;23278;52.110;6.050;2023-02-04T08:05:25;7.00;99.90
37412;DHT22;23278;52.110;6.050;2023-02-04T08:07:51;7.00;99.90
37412;DHT22;23278;52.110;6.050;2023-02-04T08:10:17;7.10;99.90
37412;DHT22;23278;52.110;6.050;2023-02-04T08:12:43;7.10;99.90
37412;DHT22;23278;52.110;6.050;2023-02-04T08:15:09;7.30;99.90
37412;DHT22;23278;52.110;6.050;2023-02-04T08:17:35;7.40;99.90
37412;DHT22;23278;52.110;6.050;2023-02-04T08:20:01;7.50;99.90
37412;DHT22;23278;52.110;6.050;2023-02-04T08:22:27;7.60;99.90
37412;DHT22;23278;52.110;6.050;2023-02-04T08:24:53;7.70;99.90
37412;DHT22;23278;52.110;6.050;2023-02-04T08:27:19;7.80;99.90
37412;DHT22;23278;52.110;6.050;2023-02-04T08:29:45;7.90;99.90
37412;DHT22;23278;52.110;6.050;2023-02-04T08:32:11;8.00;99.90
37412;DHT22;23278;52.110;6.050;2023-02-04T08:34:40;8.10;99.90
37412;DHT22;23278;52.110;6.050;2023-02-04T08:37:06;8.20;99.90
37412;DHT22;23278;52.110;6.050;2023-02-04T08:39:32;8.20;99.90
37412;DHT22;23278;52.110;6.050;2023-02-04T08:41:58;8.30;99.90
37412;DHT22;23278;52.110;6.050;2023-02-04T08:44:24;8.30;99.90
37412;DHT22;23278;52.110;6.050;2023-02-04T08:46:50;8.40;99.90
37412;DHT22;23278;52.110;6.050;2023-02-04T08:49:16;8.50;99.90
37412;DHT22;23278;52.110;6.050;2023-02-04T08:51:41;8.50;99.90
37412;DHT22;23278;52.110;6.050;2023-02-04T08:54:07;8.70;99.90
37412;DHT22;23278;52.110;6.050;2023-02-04T08:56:33;8.80;99.90
37412;DHT22;23278;52.110;6.050;2023-02-04T08:59:00;8.80;99.90
37412;DHT22;23278;52.110;6.050;2023-02-04T09:01:26;8.90;99.90
37412;DHT22;23278;52.110;6.050;2023-02-04T09:03:52;9.00;99.90
37412;DHT22;23278;52.110;6.050;2023-02-04T09:06:18;9.10;99.90
37412;DHT22;23278;52.110;6.050;2023-02-04T09:08:44;9.10;99.90
37412;DHT22;23278;52.110;6.050;2023-02-04T09:11:10;9.30;99.90
37412;DHT22;23278;52.110;6.050;2023-02-04T09:13:37;9.40;99.90
37412;DHT22;23278;52.110;6.050;2023-02-04T09:16:04;9.50;99.90
37412;DHT22;23278;52.110;6.050;2023-02-04T09:18:30;9.70;99.90
37412;DHT22;23278;52.110;6.050;2023-02-04T09:20:57;9.80;99.90
37412;DHT22;23278;52.110;6.050;2023-02-04T09:23:23;9.90;99.90
37412;DHT22;23278;52.110;6.050;2023-02-04T09:25:50;10.00;99.90
37412;DHT22;23278;52.110;6.050;2023-02-04T09:28:16;10.10;99.90
37412;DHT22;23278;52.110;6.050;2023-02-04T09:30:43;10.30;99.90
37412;DHT22;23278;52.110;6.050;2023-02-04T09:33:11;10.40;99.90
37412;DHT22;23278;52.110;6.050;2023-02-04T09:35:38;10.50;99.90
37412;DHT22;23278;52.110;6.050;2023-02-04T09:38:04;10.50;99.90
37412;DHT22;23278;52.110;6.050;2023-02-04T09:40:33;10.50;99.90
37412;DHT22;23278;52.110;6.050;2023-02-04T09:43:02;10.50;99.90
37412;DHT22;23278;52.110;6.050;2023-02-04T09:45:32;10.50;99.90
37412;DHT22;23278;52.110;6.050;2023-02-04T09:48:00;10.50;99.90
37412;DHT22;23278;52.110;6.050;2023-02-04T09:50:27;10.50;99.90
37412;DHT22;23278;52.110;6.050;2023-02-04T09:52:59;10.80;99.90
37412;DHT22;23278;52.110;6.050;2023-02-04T09:55:29;11.00;99.90
37412;DHT22;23278;52.110;6.050;2023-02-04T09:57:56;11.30;99.90
37412;DHT22;23278;52.110;6.050;2023-02-04T10:00:25;11.60;99.90
37412;DHT22;23278;52.110;6.050;2023-02-04T10:02:51;11.80;99.90
37412;DHT22;23278;52.110;6.050;2023-02-04T10:05:23;12.00;99.90
37412;DHT22;23278;52.110;6.050;2023-02-04T10:07:51;12.20;99.90
37412;DHT22;23278;52.110;6.050;2023-02-04T10:10:19;12.40;99.90
37412;DHT22;23278;52.110;6.050;2023-02-04T10:12:46;12.50;99.90
37412;DHT22;23278;52.110;6.050;2023-02-04T10:15:17;12.50;99.90
37412;DHT22;23278;52.110;6.050;2023-02-04T10:17:53;12.50;99.90
37412;DHT22;23278;52.110;6.050;2023-02-04T10:20:22;12.30;99.90
37412;DHT22;23278;52.110;6.050;2023-02-04T10:22:51;12.20;99.90
37412;DHT22;23278;52.110;6.050;2023-02-04T10:25:20;12.10;99.90
37412;DHT22;23278;52.110;6.050;2023-02-04T10:30:27;11.80;99.90
37412;DHT22;23278;52.110;6.050;2023-02-04T10:32:55;11.90;99.90
37412;DHT22;23278;52.110;6.050;2023-02-04T10:35:21;12.30;99.90
37412;DHT22;23278;52.110;6.050;2023-02-04T10:38:00;12.70;99.90
37412;DHT22;23278;52.110;6.050;2023-02-04T10:40:30;13.00;99.90
37412;DHT22;23278;52.110;6.050;2023-02-04T10:42:57;13.20;99.90
37412;DHT22;23278;52.110;6.050;2023-02-04T10:45:28;13.50;99.90
37412;DHT22;23278;52.110;6.050;2023-02-04T10:47:55;13.80;99.90
37412;DHT22;23278;52.110;6.050;2023-02-04T10:50:26;14.00;99.80
37412;DHT22;23278;52.110;6.050;2023-02-04T10:52:58;14.30;99.60
37412;DHT22;23278;52.110;6.050;2023-02-04T10:55:47;14.40;99.20
37412;DHT22;23278;52.110;6.050;2023-02-04T10:58:17;14.50;99.20
37412;DHT22;23278;52.110;6.050;2023-02-04T11:00:45;14.60;99.10
37412;DHT22;23278;52.110;6.050;2023-02-04T11:05:46;14.60;98.50
37412;DHT22;23278;52.110;6.050;2023-02-04T11:08:22;14.70;98.50
37412;DHT22;23278;52.110;6.050;2023-02-04T11:11:00;14.90;98.30
37412;DHT22;23278;52.110;6.050;2023-02-04T11:18:53;14.90;97.40
37412;DHT22;23278;52.110;6.050;2023-02-04T11:29:25;14.80;97.10
37412;DHT22;23278;52.110;6.050;2023-02-04T11:37:09;15.30;96.60
37412;DHT22;23278;52.110;6.050;2023-02-04T11:42:23;15.80;96.30
37412;DHT22;23278;52.110;6.050;2023-02-04T11:44:58;16.10;95.90
37412;DHT22;23278;52.110;6.050;2023-02-04T11:47:25;16.60;95.50
37412;DHT22;23278;52.110;6.050;2023-02-04T11:49:57;16.90;94.80
37412;DHT22;23278;52.110;6.050;2023-02-04T11:52:24;17.50;93.80
37412;DHT22;23278;52.110;6.050;2023-02-04T11:54:57;17.70;93.10
37412;DHT22;23278;52.110;6.050;2023-02-04T11:57:24;17.90;92.60
37412;DHT22;23278;52.110;6.050;2023-02-04T11:59:50;18.20;92.20
37412;DHT22;23278;52.110;6.050;2023-02-04T12:02:23;18.50;91.30
37412;DHT22;23278;52.110;6.050;2023-02-04T12:05:10;19.00;89.10
37412;DHT22;23278;52.110;6.050;2023-02-04T12:07:37;19.50;89.50
37412;DHT22;23278;52.110;6.050;2023-02-04T12:12:44;21.60;84.20
37412;DHT22;23278;52.110;6.050;2023-02-04T12:15:14;22.60;79.40
37412;DHT22;23278;52.110;6.050;2023-02-04T12:17:43;23.60;78.50
37412;DHT22;23278;52.110;6.050;2023-02-04T12:20:13;24.40;70.70
37412;DHT22;23278;52.110;6.050;2023-02-04T12:22:39;24.40;66.40
37412;DHT22;23278;52.110;6.050;2023-02-04T12:25:05;24.50;65.60
37412;DHT22;23278;52.110;6.050;2023-02-04T12:27:31;24.70;64.50
37412;DHT22;23278;52.110;6.050;2023-02-04T12:29:57;24.40;62.20
37412;DHT22;23278;52.110;6.050;2023-02-04T12:32:23;23.80;62.20
37412;DHT22;23278;52.110;6.050;2023-02-04T12:34:48;23.50;59.20
37412;DHT22;23278;52.110;6.050;2023-02-04T12:37:14;23.30;59.50
37412;DHT22;23278;52.110;6.050;2023-02-04T12:39:40;23.70;59.00
37412;DHT22;23278;52.110;6.050;2023-02-04T12:42:06;23.80;59.10
37412;DHT22;23278;52.110;6.050;2023-02-04T12:44:32;23.40;57.70
37412;DHT22;23278;52.110;6.050;2023-02-04T12:47:02;23.60;58.50
37412;DHT22;23278;52.110;6.050;2023-02-04T12:49:28;24.60;56.90
37412;DHT22;23278;52.110;6.050;2023-02-04T12:51:54;25.20;54.30
37412;DHT22;23278;52.110;6.050;2023-02-04T12:54:24;25.70;52.80
37412;DHT22;23278;52.110;6.050;2023-02-04T12:56:49;25.30;52.30
37412;DHT22;23278;52.110;6.050;2023-02-04T12:59:18;24.70;52.70
37412;DHT22;23278;52.110;6.050;2023-02-04T13:01:44;25.20;52.40
37412;DHT22;23278;52.110;6.050;2023-02-04T13:04:09;26.10;51.00
37412;DHT22;23278;52.110;6.050;2023-02-04T13:06:35;26.80;48.50
37412;DHT22;23278;52.110;6.050;2023-02-04T13:09:01;26.50;47.10
37412;DHT22;23278;52.110;6.050;2023-02-04T13:11:27;26.30;47.90
37412;DHT22;23278;52.110;6.050;2023-02-04T13:13:53;26.30;47.20
37412;DHT22;23278;52.110;6.050;2023-02-04T13:16:19;26.50;47.70
37412;DHT22;23278;52.110;6.050;2023-02-04T13:18:47;26.90;47.10
37412;DHT22;23278;52.110;6.050;2023-02-04T13:21:13;27.10;47.30
37412;DHT22;23278;52.110;6.050;2023-02-04T13:23:39;27.30;46.60
37412;DHT22;23278;52.110;6.050;2023-02-04T13:26:05;27.90;45.90
37412;DHT22;23278;52.110;6.050;2023-02-04T13:28:30;28.40;44.30
37412;DHT22;23278;52.110;6.050;2023-02-04T13:30:56;28.30;44.00
37412;DHT22;23278;52.110;6.050;2023-02-04T13:33:22;28.30;43.60
37412;DHT22;23278;52.110;6.050;2023-02-04T13:35:48;28.30;42.80
37412;DHT22;23278;52.110;6.050;2023-02-04T13:38:14;27.60;43.40
37412;DHT22;23278;52.110;6.050;2023-02-04T13:40:40;26.50;44.10
37412;DHT22;23278;52.110;6.050;2023-02-04T13:43:06;25.70;44.70
37412;DHT22;23278;52.110;6.050;2023-02-04T13:45:32;25.40;45.10
37412;DHT22;23278;52.110;6.050;2023-02-04T13:47:58;24.90;45.00
37412;DHT22;23278;52.110;6.050;2023-02-04T13:50:23;24.70;44.60
37412;DHT22;23278;52.110;6.050;2023-02-04T13:52:49;25.20;45.00
37412;DHT22;23278;52.110;6.050;2023-02-04T13:55:15;26.00;45.00
37412;DHT22;23278;52.110;6.050;2023-02-04T13:57:41;26.80;43.40
37412;DHT22;23278;52.110;6.050;2023-02-04T14:00:07;27.30;42.90
37412;DHT22;23278;52.110;6.050;2023-02-04T14:02:39;27.70;42.30
37412;DHT22;23278;52.110;6.050;2023-02-04T14:05:07;28.00;42.20
37412;DHT22;23278;52.110;6.050;2023-02-04T14:07:33;28.30;42.10
37412;DHT22;23278;52.110;6.050;2023-02-04T14:09:59;28.50;41.60
37412;DHT22;23278;52.110;6.050;2023-02-04T14:12:25;28.20;41.50
37412;DHT22;23278;52.110;6.050;2023-02-04T14:14:50;27.60;41.60
37412;DHT22;23278;52.110;6.050;2023-02-04T14:17:16;26.80;42.10
37412;DHT22;23278;52.110;6.050;2023-02-04T14:19:42;25.70;43.00
37412;DHT22;23278;52.110;6.050;2023-02-04T14:22:08;24.90;43.60
37412;DHT22;23278;52.110;6.050;2023-02-04T14:24:36;24.00;44.60
37412;DHT22;23278;52.110;6.050;2023-02-04T14:27:03;23.30;45.40
37412;DHT22;23278;52.110;6.050;2023-02-04T14:29:32;22.60;46.10
37412;DHT22;23278;52.110;6.050;2023-02-04T14:31:58;22.00;46.70
37412;DHT22;23278;52.110;6.050;2023-02-04T14:34:24;21.30;47.50
37412;DHT22;23278;52.110;6.050;2023-02-04T14:36:50;20.80;48.10
37412;DHT22;23278;52.110;6.050;2023-02-04T14:39:16;20.40;48.50
37412;DHT22;23278;52.110;6.050;2023-02-04T14:41:42;20.10;48.90
37412;DHT22;23278;52.110;6.050;2023-02-04T14:44:08;19.70;49.60
37412;DHT22;23278;52.110;6.050;2023-02-04T14:46:34;19.30;50.30
37412;DHT22;23278;52.110;6.050;2023-02-04T14:49:00;18.80;50.90
37412;DHT22;23278;52.110;6.050;2023-02-04T14:51:26;18.40;51.40
37412;DHT22;23278;52.110;6.050;2023-02-04T14:53:52;18.10;52.20
37412;DHT22;23278;52.110;6.050;2023-02-04T14:56:18;17.70;52.70
37412;DHT22;23278;52.110;6.050;2023-02-04T14:58:44;17.50;53.50
37412;DHT22;23278;52.110;6.050;2023-02-04T15:01:10;17.30;54.00
37412;DHT22;23278;52.110;6.050;2023-02-04T15:03:36;17.20;54.40
37412;DHT22;23278;52.110;6.050;2023-02-04T15:06:02;17.40;54.30
37412;DHT22;23278;52.110;6.050;2023-02-04T15:08:28;17.40;54.40
37412;DHT22;23278;52.110;6.050;2023-02-04T15:10:54;17.40;54.70
37412;DHT22;23278;52.110;6.050;2023-02-04T15:13:20;17.30;54.80
37412;DHT22;23278;52.110;6.050;2023-02-04T15:15:46;17.20;54.80
37412;DHT22;23278;52.110;6.050;2023-02-04T15:18:12;17.00;55.00
37412;DHT22;23278;52.110;6.050;2023-02-04T15:20:37;16.80;55.30
37412;DHT22;23278;52.110;6.050;2023-02-04T15:23:03;16.70;55.50
37412;DHT22;23278;52.110;6.050;2023-02-04T15:25:29;16.50;55.80
37412;DHT22;23278;52.110;6.050;2023-02-04T15:27:55;16.30;56.10
37412;DHT22;23278;52.110;6.050;2023-02-04T15:30:21;16.20;56.30
37412;DHT22;23278;52.110;6.050;2023-02-04T15:32:47;16.00;57.20
37412;DHT22;23278;52.110;6.050;2023-02-04T15:35:13;15.70;57.00
37412;DHT22;23278;52.110;6.050;2023-02-04T15:37:39;15.50;57.40
37412;DHT22;23278;52.110;6.050;2023-02-04T15:40:05;15.40;57.70
37412;DHT22;23278;52.110;6.050;2023-02-04T15:42:31;15.30;58.00
37412;DHT22;23278;52.110;6.050;2023-02-04T15:44:57;15.10;58.30
37412;DHT22;23278;52.110;6.050;2023-02-04T15:47:23;15.00;58.70
37412;DHT22;23278;52.110;6.050;2023-02-04T15:49:51;14.80;58.90
37412;DHT22;23278;52.110;6.050;2023-02-04T15:52:17;14.80;59.10
37412;DHT22;23278;52.110;6.050;2023-02-04T15:54:45;14.70;59.70
37412;DHT22;23278;52.110;6.050;2023-02-04T15:57:11;14.70;59.50
37412;DHT22;23278;52.110;6.050;2023-02-04T15:59:37;14.60;59.60
37412;DHT22;23278;52.110;6.050;2023-02-04T16:02:03;14.50;59.80
37412;DHT22;23278;52.110;6.050;2023-02-04T16:04:31;14.40;60.00
37412;DHT22;23278;52.110;6.050;2023-02-04T16:06:57;14.30;60.30